createdAt,value
2023-01-08T00:00:57.660Z,51.58
2023-01-08T00:03:25.527Z,51.42
2023-01-08T00:05:52.738Z,55.30
2023-01-08T00:08:19.580Z,49.40
2023-01-08T00:10:46.651Z,53.47
2023-01-08T00:13:13.680Z,47.40
2023-01-08T00:15:40.716Z,45.47
2023-01-08T00:18:07.830Z,50.95
2023-01-08T00:20:34.871Z,43.08
2023-01-08T00:23:01.922Z,50.30
2023-01-08T00:25:29.088Z,48.03
2023-01-08T00:27:56.126Z,48.35
2023-01-08T00:30:23.115Z,45.28
2023-01-08T00:32:50.181Z,42.30
2023-01-08T00:35:17.340Z,47.03
2023-01-08T00:37:43.821Z,46.83
2023-01-08T00:40:11.176Z,52.47
2023-01-08T00:42:38.190Z,41.78
2023-01-08T00:45:05.493Z,43.20
2023-01-08T00:47:32.369Z,44.17
2023-01-08T00:49:59.670Z,44.50
2023-01-08T00:52:26.191Z,50.63
2023-01-08T00:54:53.241Z,45.50
2023-01-08T00:57:20.219Z,45.70
2023-01-08T00:59:47.299Z,48.95
2023-01-08T01:02:14.431Z,39.92
2023-01-08T01:04:41.518Z,39.13
2023-01-08T01:07:08.707Z,43.10
2023-01-08T01:09:35.822Z,48.65
2023-01-08T01:12:02.705Z,53.65
2023-01-08T01:14:29.810Z,44.75
2023-01-08T01:16:56.900Z,43.05
2023-01-08T01:19:24.525Z,44.83
2023-01-08T01:21:51.051Z,42.63
2023-01-08T01:24:18.233Z,42.78
2023-01-08T01:26:45.293Z,43.97
2023-01-08T01:29:12.360Z,46.28
2023-01-08T01:31:39.587Z,44.05
2023-01-08T01:34:06.881Z,39.97
2023-01-08T01:36:33.842Z,46.97
2023-01-08T01:39:00.811Z,45.40
2023-01-08T01:41:32.488Z,45.72
2023-01-08T01:44:01.181Z,44.17
2023-01-08T01:46:30.845Z,48.35
2023-01-08T01:48:59.833Z,46.10
2023-01-08T01:51:30.675Z,48.58
2023-01-08T01:53:57.843Z,41.97
2023-01-08T01:56:24.920Z,58.72
2023-01-08T01:58:51.414Z,42.58
2023-01-08T02:01:18.742Z,65.35
2023-01-08T02:03:45.978Z,43.13
2023-01-08T02:06:20.428Z,52.35
2023-01-08T02:09:04.962Z,40.08
2023-01-08T02:11:47.803Z,52.60
2023-01-08T02:14:22.063Z,42.42
2023-01-08T02:17:01.397Z,42.17
2023-01-08T02:19:49.984Z,54.75
2023-01-08T02:22:42.924Z,40.90
2023-01-08T02:25:10.099Z,40.70
2023-01-08T02:27:39.455Z,44.67
2023-01-08T02:30:06.949Z,44.22
2023-01-08T02:32:36.639Z,43.95
2023-01-08T02:35:06.119Z,40.60
2023-01-08T02:37:32.732Z,42.72
2023-01-08T02:40:07.020Z,43.80
2023-01-08T02:42:36.863Z,37.83
2023-01-08T02:45:06.710Z,39.83
2023-01-08T02:47:40.137Z,39.00
2023-01-08T02:50:10.287Z,36.95
2023-01-08T02:52:41.614Z,39.10
2023-01-08T02:55:09.474Z,38.05
2023-01-08T02:57:36.665Z,39.10
2023-01-08T03:00:04.420Z,43.50
2023-01-08T03:02:33.686Z,35.63
2023-01-08T03:05:04.031Z,36.13
2023-01-08T03:07:31.388Z,41.28
2023-01-08T03:09:57.885Z,36.35
2023-01-08T03:12:25.875Z,41.80
2023-01-08T03:14:55.827Z,37.38
2023-01-08T03:17:32.148Z,35.72
2023-01-08T03:20:08.621Z,36.70
2023-01-08T03:22:38.313Z,35.15
2023-01-08T03:25:09.248Z,35.43
2023-01-08T03:27:40.275Z,38.47
2023-01-08T03:30:08.128Z,37.97
2023-01-08T03:32:35.579Z,40.17
2023-01-08T03:35:03.528Z,33.97
2023-01-08T03:37:34.120Z,36.88
2023-01-08T03:40:10.115Z,40.85
2023-01-08T03:42:37.287Z,36.20
2023-01-08T03:45:04.752Z,35.15
2023-01-08T03:47:32.511Z,36.65
2023-01-08T03:50:02.036Z,33.70
2023-01-08T03:52:30.444Z,35.08
2023-01-08T03:54:57.175Z,39.10
2023-01-08T03:57:24.418Z,36.85
2023-01-08T03:59:51.553Z,38.42
2023-01-08T04:02:18.812Z,36.42
2023-01-08T04:04:46.210Z,33.70
2023-01-08T04:07:13.572Z,34.03
2023-01-08T04:09:40.970Z,34.28
2023-01-08T04:12:08.136Z,35.13
2023-01-08T04:14:35.171Z,33.28
2023-01-08T04:17:02.370Z,35.58
2023-01-08T04:19:28.869Z,35.42
2023-01-08T04:21:56.019Z,37.33
2023-01-08T04:24:23.057Z,33.45
2023-01-08T04:26:49.729Z,33.97
2023-01-08T04:29:16.949Z,34.47
2023-01-08T04:31:43.905Z,37.85
2023-01-08T04:34:10.932Z,33.72
2023-01-08T04:36:37.998Z,35.38
2023-01-08T04:39:05.525Z,34.25
2023-01-08T04:41:32.607Z,32.30
2023-01-08T04:43:59.332Z,29.35
2023-01-08T04:46:26.554Z,35.00
2023-01-08T04:48:53.773Z,31.00
2023-01-08T04:51:22.013Z,35.13
2023-01-08T04:53:49.122Z,36.30
2023-01-08T04:56:15.633Z,38.58
2023-01-08T04:58:42.637Z,34.78
2023-01-08T05:01:11.205Z,36.83
2023-01-08T05:03:38.352Z,32.60
2023-01-08T05:06:06.283Z,33.47
2023-01-08T05:08:33.294Z,36.90
2023-01-08T05:11:00.831Z,36.33
2023-01-08T05:13:28.244Z,32.08
2023-01-08T05:15:55.482Z,31.83
2023-01-08T05:18:21.932Z,34.38
2023-01-08T05:20:48.317Z,33.80
2023-01-08T05:23:15.916Z,33.95
2023-01-08T05:25:42.548Z,31.77
2023-01-08T05:28:09.645Z,33.30
2023-01-08T05:30:36.634Z,32.35
2023-01-08T05:33:03.958Z,31.88
2023-01-08T05:35:30.925Z,33.60
2023-01-08T05:38:00.348Z,35.47
2023-01-08T05:40:27.769Z,34.10
2023-01-08T05:42:54.833Z,30.10
2023-01-08T05:45:21.799Z,29.45
2023-01-08T05:47:49.086Z,26.48
2023-01-08T05:50:15.547Z,29.10
2023-01-08T05:52:42.682Z,27.67
2023-01-08T05:55:10.197Z,30.95
2023-01-08T05:57:37.192Z,29.80
2023-01-08T06:00:08.939Z,32.88
2023-01-08T06:02:35.608Z,28.80
2023-01-08T06:05:02.823Z,31.08
2023-01-08T06:07:30.567Z,30.38
2023-01-08T06:09:57.763Z,28.58
2023-01-08T06:12:25.122Z,28.20
2023-01-08T06:14:52.220Z,32.90
2023-01-08T06:17:19.202Z,27.08
2023-01-08T06:19:48.016Z,29.10
2023-01-08T06:22:14.543Z,31.33
2023-01-08T06:24:41.942Z,33.70
2023-01-08T06:27:09.168Z,31.75
2023-01-08T06:29:36.503Z,33.42
2023-01-08T06:32:03.946Z,34.33
2023-01-08T06:34:30.517Z,31.70
2023-01-08T06:36:57.430Z,35.28
2023-01-08T06:39:24.361Z,34.78
2023-01-08T06:41:50.773Z,30.30
2023-01-08T06:44:18.287Z,32.42
2023-01-08T06:46:45.596Z,31.70
2023-01-08T06:49:12.146Z,34.70
2023-01-08T06:51:39.074Z,28.15
2023-01-08T06:54:06.494Z,29.63
2023-01-08T06:56:37.724Z,29.48
2023-01-08T06:59:11.985Z,33.05
2023-01-08T07:01:38.947Z,35.05
2023-01-08T07:04:05.919Z,36.55
2023-01-08T07:06:32.502Z,34.55
2023-01-08T07:08:59.371Z,28.38
2023-01-08T07:11:26.235Z,30.85
2023-01-08T07:13:52.810Z,34.38
2023-01-08T07:16:19.317Z,34.30
2023-01-08T07:18:46.756Z,34.17
2023-01-08T07:21:13.549Z,33.70
2023-01-08T07:23:42.001Z,37.13
2023-01-08T07:26:09.175Z,30.92
2023-01-08T07:28:35.813Z,27.65
2023-01-08T07:31:03.592Z,28.23
2023-01-08T07:33:30.160Z,28.90
2023-01-08T07:35:56.831Z,30.50
2023-01-08T07:38:23.915Z,31.48
2023-01-08T07:40:50.398Z,29.23
2023-01-08T07:43:16.926Z,30.02
2023-01-08T07:45:44.526Z,30.98
2023-01-08T07:48:15.722Z,28.75
2023-01-08T07:50:43.713Z,28.25
2023-01-08T07:53:11.110Z,43.80
2023-01-08T07:55:37.653Z,29.10
2023-01-08T07:58:11.597Z,34.90
2023-01-08T08:00:38.412Z,29.08
2023-01-08T08:03:09.630Z,54.25
2023-01-08T08:05:36.179Z,36.95
2023-01-08T08:08:07.407Z,29.42
2023-01-08T08:10:33.845Z,29.05
2023-01-08T08:13:00.269Z,27.80
2023-01-08T08:15:26.703Z,26.80
2023-01-08T08:17:53.151Z,30.35
2023-01-08T08:20:19.643Z,31.05
2023-01-08T08:22:46.806Z,29.95
2023-01-08T08:25:15.440Z,26.75
2023-01-08T08:27:42.905Z,26.60
2023-01-08T08:30:10.742Z,31.05
2023-01-08T08:32:37.430Z,33.40
2023-01-08T08:35:05.000Z,30.25
2023-01-08T08:37:32.097Z,29.02
2023-01-08T08:39:58.655Z,30.20
2023-01-08T08:42:25.272Z,31.83
2023-01-08T08:44:51.856Z,32.22
2023-01-08T08:47:18.614Z,29.73
2023-01-08T08:49:45.160Z,27.67
2023-01-08T08:52:12.065Z,34.38
2023-01-08T08:54:41.673Z,33.83
2023-01-08T08:57:11.431Z,37.22
2023-01-08T08:59:38.512Z,29.85
2023-01-08T09:02:05.790Z,27.60
2023-01-08T09:04:33.688Z,28.42
2023-01-08T09:07:00.514Z,32.00
2023-01-08T09:09:27.208Z,51.65
2023-01-08T09:11:53.951Z,28.05
2023-01-08T09:14:21.146Z,26.92
2023-01-08T09:16:47.903Z,26.02
2023-01-08T09:19:14.387Z,28.80
2023-01-08T09:21:41.809Z,29.15
2023-01-08T09:24:09.224Z,27.08
2023-01-08T09:26:35.723Z,26.50
2023-01-08T09:29:02.885Z,25.23
2023-01-08T09:31:29.433Z,29.35
2023-01-08T09:33:55.889Z,29.33
2023-01-08T09:36:23.473Z,29.55
2023-01-08T09:38:50.014Z,41.80
2023-01-08T09:41:17.052Z,30.58
2023-01-08T09:43:45.342Z,25.60
2023-01-08T09:46:12.393Z,26.10
2023-01-08T09:48:40.732Z,26.63
2023-01-08T09:51:10.531Z,26.73
2023-01-08T09:53:37.066Z,26.85
2023-01-08T09:56:10.302Z,25.92
2023-01-08T09:58:39.633Z,22.88
2023-01-08T10:01:07.053Z,26.23
2023-01-08T10:03:41.246Z,27.00
2023-01-08T10:06:15.427Z,26.27
2023-01-08T10:08:42.811Z,23.55
2023-01-08T10:11:10.875Z,28.98
2023-01-08T10:13:39.208Z,28.55
2023-01-08T10:16:07.374Z,31.52
2023-01-08T10:18:35.493Z,23.40
2023-01-08T10:21:01.939Z,20.75
2023-01-08T10:23:28.797Z,21.15
2023-01-08T10:25:56.642Z,17.55
2023-01-08T10:28:26.166Z,22.30
2023-01-08T10:30:53.901Z,23.90
2023-01-08T10:33:23.414Z,22.58
2023-01-08T10:35:59.408Z,21.73
2023-01-08T10:38:27.516Z,18.75
2023-01-08T10:40:54.929Z,27.48
2023-01-08T10:43:22.508Z,20.15
2023-01-08T10:46:00.976Z,24.45
2023-01-08T10:48:33.564Z,22.10
2023-01-08T10:51:07.923Z,19.58
2023-01-08T10:53:34.789Z,18.15
2023-01-08T10:56:02.451Z,23.80
2023-01-08T10:58:29.658Z,24.95
2023-01-08T11:01:08.758Z,25.38
2023-01-08T11:03:35.853Z,20.35
2023-01-08T11:06:10.560Z,26.40
2023-01-08T11:08:37.029Z,33.33
2023-01-08T11:11:03.497Z,25.77
2023-01-08T11:13:30.850Z,24.52
2023-01-08T11:16:04.004Z,34.03
2023-01-08T11:18:30.797Z,35.17
2023-01-08T11:21:11.383Z,25.83
2023-01-08T11:23:37.881Z,26.83
2023-01-08T11:26:07.995Z,28.27
2023-01-08T11:28:38.105Z,24.80
2023-01-08T11:31:11.181Z,24.42
2023-01-08T11:33:39.470Z,22.45
2023-01-08T11:36:14.777Z,26.10
2023-01-08T11:38:41.393Z,26.58
2023-01-08T11:41:25.708Z,24.50
2023-01-08T11:44:04.482Z,23.00
2023-01-08T11:46:37.465Z,23.25
2023-01-08T11:49:13.649Z,22.98
2023-01-08T11:51:58.990Z,23.73
2023-01-08T11:54:43.718Z,23.33
2023-01-08T11:57:13.832Z,24.55
2023-01-08T11:59:44.247Z,22.38
2023-01-08T12:02:26.698Z,25.08
2023-01-08T12:05:02.131Z,26.17
2023-01-08T12:08:01.360Z,26.65
2023-01-08T12:10:35.356Z,26.02
2023-01-08T12:13:01.868Z,26.83
2023-01-08T12:15:41.156Z,26.17
2023-01-08T12:18:28.658Z,29.77
2023-01-08T12:21:06.219Z,30.63
2023-01-08T12:23:36.081Z,27.35
2023-01-08T12:26:10.394Z,26.52
2023-01-08T12:28:39.914Z,25.08
2023-01-08T12:31:06.942Z,28.73
2023-01-08T12:33:33.911Z,27.65
2023-01-08T12:36:02.141Z,25.92
2023-01-08T12:38:30.230Z,28.65
2023-01-08T12:40:59.749Z,25.65
2023-01-08T12:43:31.842Z,29.23
2023-01-08T12:46:00.068Z,28.95
2023-01-08T12:48:36.781Z,32.08
2023-01-08T12:51:18.208Z,27.83
2023-01-08T12:54:03.872Z,31.85
2023-01-08T12:56:42.275Z,28.65
2023-01-08T12:59:14.734Z,33.25
2023-01-08T13:01:42.490Z,38.13
2023-01-08T13:04:10.768Z,31.75
2023-01-08T13:06:37.802Z,32.40
2023-01-08T13:09:05.270Z,34.92
2023-01-08T13:11:33.687Z,28.95
2023-01-08T13:14:09.802Z,30.50
2023-01-08T13:16:40.795Z,31.10
2023-01-08T13:19:22.690Z,32.03
2023-01-08T13:21:53.663Z,32.03
2023-01-08T13:24:29.748Z,32.40
2023-01-08T13:26:57.342Z,34.28
2023-01-08T13:29:34.184Z,30.75
2023-01-08T13:32:01.894Z,32.47
2023-01-08T13:34:40.326Z,29.08
2023-01-08T13:37:11.387Z,29.85
2023-01-08T13:39:43.545Z,34.10
2023-01-08T13:42:14.433Z,28.45
2023-01-08T13:44:43.104Z,30.40
2023-01-08T13:47:28.721Z,32.40
2023-01-08T13:49:56.099Z,32.05
2023-01-08T13:52:35.764Z,38.35
2023-01-08T13:55:04.019Z,36.65
2023-01-08T13:57:41.879Z,35.85
2023-01-08T14:00:10.634Z,35.95
2023-01-08T14:02:51.096Z,34.03
2023-01-08T14:05:22.817Z,37.75
2023-01-08T14:07:49.365Z,33.45
2023-01-08T14:10:16.289Z,35.08
2023-01-08T14:12:43.895Z,35.80
2023-01-08T14:15:16.527Z,35.60
2023-01-08T14:17:43.773Z,30.60
2023-01-08T14:20:12.749Z,27.60
2023-01-08T14:22:41.995Z,32.80
2023-01-08T14:25:08.758Z,30.13
2023-01-08T14:27:36.303Z,32.72
2023-01-08T14:30:15.396Z,31.77
2023-01-08T14:32:43.664Z,29.27
2023-01-08T14:35:15.069Z,34.05
2023-01-08T14:37:41.556Z,37.00
2023-01-08T14:40:16.092Z,32.63
2023-01-08T14:42:47.212Z,33.10
2023-01-08T14:45:20.545Z,42.78
2023-01-08T14:47:51.483Z,36.88
2023-01-08T14:50:25.866Z,38.70
2023-01-08T14:52:58.387Z,34.75
2023-01-08T14:55:26.352Z,33.38
2023-01-08T14:57:54.990Z,34.25
2023-01-08T15:00:24.387Z,36.15
2023-01-08T15:02:51.461Z,40.83
2023-01-08T15:05:18.834Z,42.40
2023-01-08T15:08:06.769Z,32.80
2023-01-08T15:10:34.435Z,30.23
2023-01-08T15:13:04.305Z,35.60
2023-01-08T15:15:32.979Z,32.65
2023-01-08T15:18:00.317Z,32.92
2023-01-08T15:20:31.890Z,38.25
2023-01-08T15:23:00.136Z,39.05
2023-01-08T15:25:28.915Z,38.75
2023-01-08T15:28:00.225Z,34.55
2023-01-08T15:30:35.357Z,41.00
2023-01-08T15:33:09.589Z,41.00
2023-01-08T15:35:36.644Z,40.72
2023-01-08T15:38:03.979Z,38.53
2023-01-08T15:40:31.221Z,41.55
2023-01-08T15:43:13.393Z,37.88
2023-01-08T15:45:41.929Z,42.50
2023-01-08T15:48:10.053Z,35.83
2023-01-08T15:50:39.233Z,41.50
2023-01-08T15:53:08.428Z,46.03
2023-01-08T15:55:35.771Z,45.03
2023-01-08T15:58:02.798Z,38.92
2023-01-08T16:00:30.287Z,47.88
2023-01-08T16:02:59.634Z,43.53
2023-01-08T16:05:28.979Z,53.15
2023-01-08T16:07:55.415Z,44.20
2023-01-08T16:10:21.997Z,48.95
2023-01-08T16:12:48.552Z,42.00
2023-01-08T16:15:15.356Z,45.97
2023-01-08T16:17:42.192Z,39.65
2023-01-08T16:20:09.172Z,42.13
2023-01-08T16:22:35.819Z,40.78
2023-01-08T16:25:03.150Z,41.72
2023-01-08T16:27:32.904Z,48.17
2023-01-08T16:29:59.534Z,49.97
2023-01-08T16:32:26.151Z,41.97
2023-01-08T16:34:54.976Z,41.28
2023-01-08T16:37:21.829Z,45.25
2023-01-08T16:39:48.790Z,51.55
2023-01-08T16:42:15.730Z,48.75
2023-01-08T16:44:42.673Z,46.55
2023-01-08T16:47:09.152Z,49.25
2023-01-08T16:49:36.051Z,50.15
2023-01-08T16:52:03.630Z,48.95
2023-01-08T16:54:30.142Z,50.58
2023-01-08T16:56:56.568Z,46.15
2023-01-08T16:59:24.742Z,46.88
2023-01-08T17:01:52.305Z,42.05
2023-01-08T17:04:19.546Z,45.50
2023-01-08T17:06:47.226Z,45.80
2023-01-08T17:09:14.838Z,40.88
2023-01-08T17:11:41.427Z,43.42
2023-01-08T17:14:08.488Z,59.35
2023-01-08T17:16:35.282Z,55.38
2023-01-08T17:19:02.142Z,75.68
2023-01-08T17:21:28.595Z,61.90
2023-01-08T17:23:55.384Z,55.13
2023-01-08T17:26:22.152Z,47.22
2023-01-08T17:28:48.831Z,39.53
2023-01-08T17:31:18.375Z,38.08
2023-01-08T17:33:49.884Z,41.70
2023-01-08T17:36:18.323Z,36.30
2023-01-08T17:38:48.305Z,35.17
2023-01-08T17:41:33.805Z,32.53
2023-01-08T17:44:00.517Z,34.97
2023-01-08T17:46:27.459Z,35.85
2023-01-08T17:48:54.011Z,36.25
2023-01-08T17:51:20.706Z,36.28
2023-01-08T17:53:47.517Z,38.17
2023-01-08T17:56:14.435Z,38.10
2023-01-08T17:58:40.961Z,37.17
2023-01-08T18:01:12.844Z,42.65
2023-01-08T18:03:39.577Z,41.65
2023-01-08T18:06:10.178Z,37.75
2023-01-08T18:08:37.693Z,42.67
2023-01-08T18:11:05.082Z,41.13
2023-01-08T18:13:32.268Z,38.25
2023-01-08T18:16:03.105Z,39.50
2023-01-08T18:18:30.036Z,36.38
2023-01-08T18:20:56.774Z,42.53
2023-01-08T18:23:23.403Z,40.05
2023-01-08T18:25:50.065Z,39.40
2023-01-08T18:28:16.778Z,43.85
2023-01-08T18:30:45.883Z,43.97
2023-01-08T18:33:13.103Z,46.08
2023-01-08T18:35:40.167Z,48.15
2023-01-08T18:38:09.928Z,50.63
2023-01-08T18:40:37.043Z,47.17
2023-01-08T18:43:03.529Z,48.00
2023-01-08T18:45:35.387Z,48.83
2023-01-08T18:48:02.772Z,53.22
2023-01-08T18:50:29.416Z,47.67
2023-01-08T18:52:56.262Z,48.97
2023-01-08T18:55:22.687Z,53.40
2023-01-08T18:57:51.167Z,50.13
2023-01-08T19:00:18.269Z,48.78
2023-01-08T19:02:44.912Z,46.80
2023-01-08T19:05:12.460Z,51.22
2023-01-08T19:07:40.967Z,52.17
2023-01-08T19:10:08.931Z,45.92
2023-01-08T19:12:35.706Z,47.60
2023-01-08T19:15:02.276Z,49.20
2023-01-08T19:17:32.191Z,45.47
2023-01-08T19:19:58.826Z,51.25
2023-01-08T19:22:28.683Z,42.03
2023-01-08T19:24:55.571Z,45.90
2023-01-08T19:27:22.817Z,51.00
2023-01-08T19:29:49.642Z,52.65
2023-01-08T19:32:16.312Z,46.95
2023-01-08T19:34:43.050Z,47.55
2023-01-08T19:37:10.572Z,46.25
2023-01-08T19:39:37.304Z,50.47
2023-01-08T19:42:22.507Z,56.03
2023-01-08T19:44:49.601Z,50.75
2023-01-08T19:47:16.202Z,49.17
2023-01-08T19:49:47.460Z,49.42
2023-01-08T19:52:14.948Z,51.83
2023-01-08T19:54:41.803Z,55.17
2023-01-08T19:57:08.266Z,55.75
2023-01-08T19:59:34.728Z,49.80
2023-01-08T20:02:01.486Z,51.80
2023-01-08T20:04:29.841Z,51.70
2023-01-08T20:06:58.758Z,46.30
2023-01-08T20:09:25.391Z,46.08
2023-01-08T20:11:52.279Z,45.45
2023-01-08T20:14:20.835Z,45.85
2023-01-08T20:16:48.438Z,54.70
2023-01-08T20:19:15.082Z,48.75
2023-01-08T20:21:42.733Z,51.67
2023-01-08T20:24:13.603Z,45.83
2023-01-08T20:26:40.947Z,49.45
2023-01-08T20:29:07.801Z,45.08
2023-01-08T20:31:35.372Z,44.78
2023-01-08T20:34:05.733Z,50.63
2023-01-08T20:36:33.757Z,49.35
2023-01-08T20:39:01.854Z,49.30
2023-01-08T20:41:28.612Z,44.38
2023-01-08T20:43:59.296Z,49.70
2023-01-08T20:46:30.371Z,50.38
2023-01-08T20:49:03.876Z,47.97
2023-01-08T20:51:37.017Z,53.78
2023-01-08T20:54:05.159Z,50.75
2023-01-08T20:56:32.193Z,48.40
2023-01-08T20:58:59.243Z,49.08
2023-01-08T21:01:31.813Z,50.65
2023-01-08T21:03:59.545Z,48.35
2023-01-08T21:06:28.232Z,43.30
2023-01-08T21:08:56.681Z,46.58
2023-01-08T21:11:23.824Z,49.72
2023-01-08T21:13:51.606Z,50.58
2023-01-08T21:16:22.712Z,49.00
2023-01-08T21:18:50.835Z,45.97
2023-01-08T21:21:19.821Z,48.53
2023-01-08T21:23:47.486Z,50.80
2023-01-08T21:26:15.521Z,42.90
2023-01-08T21:28:42.948Z,42.70
2023-01-08T21:31:11.159Z,45.60
2023-01-08T21:33:40.427Z,42.50
2023-01-08T21:36:08.953Z,41.05
2023-01-08T21:38:37.025Z,41.67
2023-01-08T21:41:33.792Z,39.13
2023-01-08T21:44:19.888Z,42.45
2023-01-08T21:46:46.647Z,46.78
2023-01-08T21:49:13.967Z,41.10
2023-01-08T21:51:59.676Z,43.55
2023-01-08T21:54:26.870Z,42.15
2023-01-08T21:56:54.044Z,47.42
2023-01-08T21:59:21.049Z,42.47
2023-01-08T22:01:48.201Z,42.45
2023-01-08T22:04:15.374Z,46.65
2023-01-08T22:06:43.367Z,42.75
2023-01-08T22:09:10.175Z,45.15
2023-01-08T22:11:37.189Z,44.72
2023-01-08T22:14:04.440Z,43.92
2023-01-08T22:16:31.667Z,42.25
2023-01-08T22:18:58.793Z,42.65
2023-01-08T22:21:26.330Z,41.50
2023-01-08T22:23:53.381Z,43.90
2023-01-08T22:26:20.846Z,42.00
2023-01-08T22:28:47.900Z,45.70
2023-01-08T22:31:16.347Z,43.00
2023-01-08T22:33:43.201Z,40.75
2023-01-08T22:36:11.294Z,44.05
2023-01-08T22:38:38.775Z,43.22
2023-01-08T22:41:10.684Z,47.25
2023-01-08T22:43:37.773Z,40.72
2023-01-08T22:46:04.898Z,41.08
2023-01-08T22:48:31.420Z,41.38
2023-01-08T22:51:02.493Z,43.03
2023-01-08T22:53:29.617Z,42.25
2023-01-08T22:55:56.585Z,50.88
2023-01-08T22:58:23.583Z,42.67
2023-01-08T23:00:50.709Z,43.65
2023-01-08T23:03:17.827Z,44.08
2023-01-08T23:05:45.114Z,49.38
2023-01-08T23:08:12.688Z,44.08
2023-01-08T23:10:40.012Z,45.35
2023-01-08T23:13:07.147Z,41.47
2023-01-08T23:15:33.634Z,43.90
2023-01-08T23:18:00.807Z,40.45
2023-01-08T23:20:28.184Z,43.08
2023-01-08T23:22:55.298Z,45.08
2023-01-08T23:25:22.369Z,45.58
2023-01-08T23:27:49.281Z,44.40
2023-01-08T23:30:16.684Z,45.30
2023-01-08T23:32:43.177Z,47.22
2023-01-08T23:35:10.448Z,48.58
2023-01-08T23:37:36.892Z,45.28
2023-01-08T23:40:03.872Z,45.65
2023-01-08T23:42:31.103Z,42.75
2023-01-08T23:44:58.517Z,46.72
2023-01-08T23:47:25.886Z,48.30
2023-01-08T23:49:52.969Z,47.42
2023-01-08T23:52:20.248Z,41.90
2023-01-08T23:54:47.315Z,43.60
2023-01-08T23:57:14.087Z,39.72
2023-01-08T23:59:40.980Z,41.75
